Time;durP1;ratioP1;P1;durP2;ratioP2;P2;SDS_P1;SDS_P2;PMS_P1;PMS_P2;Temp;Humidity;BMP_temperature;BMP_pressure;BME280_temperature;BME280_humidity;BME280_pressure;Samples;Min_cycle;Max_cycle;Signal;HPM_P1;HPM_P2
2023/08/19 00:01:18;;;;;;;4.22;2.55;;;18.50;99.90;;;;;;5019801;28;20492;-71
2023/08/19 00:03:44;;;;;;;5.00;2.60;;;18.50;99.90;;;;;;5019786;28;20113;-71
2023/08/19 00:06:12;;;;;;;5.47;3.53;;;18.50;99.90;;;;;;5018365;28;20030;-71
2023/08/19 00:08:38;;;;;;;5.72;3.30;;;18.40;99.90;;;;;;5019577;28;20026;-71
2023/08/19 00:11:04;;;;;;;6.15;3.42;;;18.30;99.90;;;;;;5018464;28;20396;-71
2023/08/19 00:13:30;;;;;;;5.03;3.17;;;18.10;99.90;;;;;;5019570;28;20481;-71
2023/08/19 00:15:56;;;;;;;4.72;3.10;;;18.00;99.90;;;;;;5019809;28;20113;-71
2023/08/19 00:18:22;;;;;;;6.90;3.45;;;17.90;99.90;;;;;;5018156;28;20117;-71
2023/08/19 00:20:50;;;;;;;5.38;3.50;;;17.80;99.90;;;;;;5019353;28;20114;-71
2023/08/19 00:23:16;;;;;;;6.53;3.58;;;17.70;99.90;;;;;;5018674;28;20388;-71
2023/08/19 00:25:43;;;;;;;7.60;4.13;;;17.60;99.90;;;;;;5016380;28;20018;-71
2023/08/19 00:28:08;;;;;;;8.32;4.97;;;17.60;99.90;;;;;;5016592;28;20018;-71
2023/08/19 00:30:34;;;;;;;4.68;3.63;;;17.70;99.90;;;;;;5016446;28;20053;-71
2023/08/19 00:33:00;;;;;;;4.60;3.15;;;17.70;99.90;;;;;;5016380;28;20030;-71
2023/08/19 00:35:26;;;;;;;5.10;3.15;;;17.70;99.90;;;;;;5016126;28;20025;-71
2023/08/19 00:37:52;;;;;;;5.88;2.80;;;17.70;99.90;;;;;;5016065;28;20088;-71
2023/08/19 00:40:18;;;;;;;4.82;3.22;;;17.80;99.90;;;;;;5015994;28;20073;-71
2023/08/19 00:42:44;;;;;;;5.68;3.33;;;17.80;99.90;;;;;;5015993;28;20022;-71
2023/08/19 00:45:10;;;;;;;5.35;3.20;;;17.90;99.90;;;;;;5004789;28;20040;-71
2023/08/19 00:47:37;;;;;;;4.15;3.00;;;17.80;99.90;;;;;;4996488;28;20080;-71
2023/08/19 00:50:10;;;;;;;4.63;3.25;;;17.80;99.90;;;;;;5002638;28;20036;-71
2023/08/19 00:52:36;;;;;;;5.25;3.30;;;17.70;99.90;;;;;;5015871;28;20109;-71
2023/08/19 00:55:04;;;;;;;5.30;3.30;;;17.60;99.90;;;;;;5015690;28;20057;-71
2023/08/19 00:57:31;;;;;;;4.57;2.90;;;17.70;99.90;;;;;;5015779;28;20101;-71
2023/08/19 00:59:56;;;;;;;5.88;3.05;;;17.60;99.90;;;;;;5016140;28;20030;-71
2023/08/19 01:02:22;;;;;;;4.18;3.22;;;17.60;99.90;;;;;;5015694;28;20034;-71
2023/08/19 01:04:48;;;;;;;4.50;3.30;;;17.60;99.90;;;;;;5015624;28;20064;-71
2023/08/19 01:07:38;;;;;;;4.22;3.35;;;17.60;99.90;;;;;;5025631;28;20030;-71
2023/08/19 01:10:11;;;;;;;4.90;2.90;;;17.50;99.90;;;;;;5015234;28;20080;-71
2023/08/19 01:12:41;;;;;;;4.95;3.42;;;17.50;99.90;;;;;;5015970;28;20510;-71
2023/08/19 01:15:25;;;;;;;7.43;3.72;;;17.40;99.90;;;;;;5017387;28;20036;-71
2023/08/19 01:17:51;;;;;;;9.43;3.97;;;17.30;99.90;;;;;;5015171;28;20125;-72
2023/08/19 01:20:21;;;;;;;4.68;3.03;;;17.10;99.90;;;;;;5014876;28;20465;-71
2023/08/19 01:22:59;;;;;;;4.20;3.28;;;17.00;99.90;;;;;;5015166;28;20030;-71
2023/08/19 01:25:26;;;;;;;5.50;3.58;;;16.90;99.90;;;;;;5015138;28;20033;-71
2023/08/19 01:27:52;;;;;;;6.65;3.13;;;16.90;99.90;;;;;;5014961;28;20060;-71
2023/08/19 01:30:17;;;;;;;5.45;3.30;;;16.90;99.90;;;;;;5018364;28;20045;-71
2023/08/19 01:32:44;;;;;;;7.78;3.80;;;17.00;99.90;;;;;;5014865;28;20029;-71
2023/08/19 01:35:11;;;;;;;7.85;3.50;;;17.00;99.90;;;;;;5014300;28;20052;-71
2023/08/19 01:38:02;;;;;;;5.50;3.15;;;17.00;99.90;;;;;;5014809;28;20026;-71
2023/08/19 01:40:30;;;;;;;5.32;2.95;;;17.00;99.90;;;;;;5013824;28;20481;-71
2023/08/19 01:42:56;;;;;;;4.80;3.15;;;16.90;99.90;;;;;;5014670;28;20022;-71
2023/08/19 01:45:22;;;;;;;5.35;3.10;;;16.90;99.90;;;;;;5014080;28;20438;-71
2023/08/19 01:47:53;;;;;;;6.93;2.95;;;16.90;99.90;;;;;;5014831;28;20056;-71
2023/08/19 01:50:19;;;;;;;;;;;16.80;99.90;;;;;;5014433;28;20514;-71
2023/08/19 01:52:45;;;;;;;5.15;3.30;;;16.70;99.90;;;;;;5014319;28;19941;-71
2023/08/19 01:55:10;;;;;;;5.63;3.40;;;16.60;99.90;;;;;;5014715;28;20373;-71
2023/08/19 01:57:36;;;;;;;4.72;3.20;;;16.60;99.90;;;;;;5013807;28;20068;-70
2023/08/19 02:00:03;;;;;;;4.93;3.10;;;16.50;99.90;;;;;;5014761;28;20030;-71
2023/08/19 02:02:29;;;;;;;4.55;3.15;;;16.50;99.90;;;;;;5014488;28;20022;-71
2023/08/19 02:04:55;;;;;;;4.50;3.10;;;16.50;99.90;;;;;;5014478;28;20032;-71
2023/08/19 02:07:21;;;;;;;4.60;2.80;;;16.50;99.90;;;;;;5014457;28;20084;-71
2023/08/19 02:09:46;;;;;;;5.85;3.13;;;16.50;99.90;;;;;;5014342;28;20045;-71
2023/08/19 02:12:12;;;;;;;4.10;3.17;;;16.50;99.90;;;;;;5014441;28;20116;-71
2023/08/19 02:14:38;;;;;;;7.32;3.50;;;16.50;99.90;;;;;;5014303;28;20033;-71
2023/08/19 02:17:03;;;;;;;5.82;2.90;;;16.40;99.90;;;;;;5013040;28;20069;-71
2023/08/19 02:19:29;;;;;;;4.13;3.25;;;16.40;99.90;;;;;;5014281;28;20044;-71
2023/08/19 02:21:55;;;;;;;4.70;3.35;;;16.40;99.90;;;;;;5014135;28;20026;-71
2023/08/19 02:24:20;;;;;;;4.25;3.10;;;16.40;99.90;;;;;;5014456;28;20030;-71
2023/08/19 02:26:46;;;;;;;4.55;3.50;;;16.40;99.90;;;;;;5014834;28;20037;-71
2023/08/19 02:29:12;;;;;;;6.18;3.35;;;16.40;99.90;;;;;;5014115;28;20114;-71
2023/08/19 02:31:38;;;;;;;4.47;3.55;;;16.40;99.90;;;;;;5014374;28;20038;-71
2023/08/19 02:34:04;;;;;;;5.47;3.50;;;16.40;99.90;;;;;;5014628;28;20080;-71
2023/08/19 02:36:31;;;;;;;6.70;3.20;;;16.40;99.90;;;;;;5014016;28;20055;-71
2023/08/19 02:38:58;;;;;;;4.78;3.42;;;16.30;99.90;;;;;;5014543;28;20026;-71
2023/08/19 02:41:24;;;;;;;5.40;3.05;;;16.20;99.90;;;;;;5012912;28;20030;-71
2023/08/19 02:43:50;;;;;;;5.93;3.63;;;16.20;99.90;;;;;;5014022;28;20408;-71
2023/08/19 02:46:16;;;;;;;6.28;3.67;;;16.20;99.90;;;;;;5013647;28;20034;-71
2023/08/19 02:48:42;;;;;;;5.30;3.58;;;16.20;99.90;;;;;;5013426;28;20519;-71
2023/08/19 02:51:07;;;;;;;4.22;3.05;;;16.20;99.90;;;;;;5012770;28;20032;-71
2023/08/19 02:53:33;;;;;;;5.53;3.58;;;16.20;99.90;;;;;;5013798;28;20503;-71
2023/08/19 02:55:59;;;;;;;5.07;3.45;;;16.20;99.90;;;;;;5012528;28;20041;-71
2023/08/19 02:58:25;;;;;;;4.63;2.95;;;16.20;99.90;;;;;;5013732;28;20131;-71
2023/08/19 03:00:51;;;;;;;6.15;3.42;;;16.10;99.90;;;;;;5013728;28;20105;-71
2023/08/19 03:03:17;;;;;;;9.32;3.50;;;16.10;99.90;;;;;;5014190;28;20100;-71
2023/08/19 03:05:43;;;;;;;5.10;3.22;;;16.10;99.90;;;;;;5012381;28;20435;-71
2023/08/19 03:08:09;;;;;;;4.95;3.30;;;16.10;99.90;;;;;;5013885;28;20488;-71
2023/08/19 03:10:36;;;;;;;5.18;3.05;;;16.10;99.90;;;;;;5013471;28;20026;-71
2023/08/19 03:13:03;;;;;;;4.63;3.17;;;16.10;99.90;;;;;;5013785;28;20101;-71
2023/08/19 03:15:32;;;;;;;8.10;3.08;;;16.10;99.90;;;;;;5013730;28;20030;-71
2023/08/19 03:17:58;;;;;;;6.55;3.00;;;16.00;99.90;;;;;;5013544;28;20030;-71
2023/08/19 03:20:24;;;;;;;9.38;3.20;;;16.00;99.90;;;;;;5013449;28;20033;-71
2023/08/19 03:22:49;;;;;;;5.25;3.10;;;16.00;99.90;;;;;;5013538;28;20109;-71
2023/08/19 03:25:16;;;;;;;7.88;3.35;;;16.00;99.90;;;;;;5012371;28;20129;-71
2023/08/19 03:27:41;;;;;;;6.15;3.20;;;16.00;99.90;;;;;;5012092;28;20029;-71
2023/08/19 03:30:08;;;;;;;4.70;3.03;;;16.00;99.90;;;;;;5013280;28;20029;-71
2023/08/19 03:32:33;;;;;;;6.05;3.35;;;16.00;99.90;;;;;;5013384;28;20515;-71
2023/08/19 03:34:59;;;;;;;4.40;3.30;;;15.90;99.90;;;;;;5013213;28;20065;-71
2023/08/19 03:37:25;;;;;;;4.97;3.30;;;15.90;99.90;;;;;;5013403;28;20049;-71
2023/08/19 03:39:51;;;;;;;6.50;3.65;;;15.80;99.90;;;;;;5013533;28;20026;-71
2023/08/19 03:42:18;;;;;;;5.38;3.67;;;15.80;99.90;;;;;;5013353;28;20026;-71
2023/08/19 03:44:44;;;;;;;4.55;3.42;;;15.80;99.90;;;;;;5013436;28;20061;-71
2023/08/19 03:47:11;;;;;;;5.70;3.45;;;15.80;99.90;;;;;;5014375;28;20030;-71
2023/08/19 03:49:36;;;;;;;6.13;4.00;;;15.80;99.90;;;;;;5012642;28;20041;-71
2023/08/19 03:52:04;;;;;;;4.88;2.97;;;15.70;99.90;;;;;;5013123;28;20022;-71
2023/08/19 03:54:30;;;;;;;8.38;3.70;;;15.70;99.90;;;;;;5013126;28;20098;-71
2023/08/19 03:56:55;;;;;;;4.57;3.08;;;15.60;99.90;;;;;;5012013;28;20030;-71
2023/08/19 03:59:21;;;;;;;6.15;3.40;;;15.50;99.90;;;;;;5015227;28;20025;-71
2023/08/19 04:01:47;;;;;;;5.03;3.35;;;15.50;99.90;;;;;;5017125;28;20030;-71
2023/08/19 04:04:12;;;;;;;5.50;3.40;;;15.50;99.90;;;;;;5016875;28;20030;-71
2023/08/19 04:06:38;;;;;;;5.45;3.20;;;15.50;99.90;;;;;;5015541;28;20080;-71
2023/08/19 04:09:04;;;;;;;4.75;3.35;;;15.50;99.90;;;;;;5016864;28;20022;-71
2023/08/19 04:11:30;;;;;;;7.18;3.50;;;15.60;99.90;;;;;;5016708;28;20041;-71
2023/08/19 04:13:56;;;;;;;6.25;3.20;;;15.50;99.90;;;;;;5016634;28;20443;-71
2023/08/19 04:16:23;;;;;;;4.45;3.30;;;15.50;99.90;;;;;;5016834;28;20026;-71
2023/08/19 04:18:50;;;;;;;5.05;3.38;;;15.50;99.90;;;;;;5016573;28;20034;-71
2023/08/19 04:21:16;;;;;;;5.00;3.33;;;15.50;99.90;;;;;;5016450;28;20485;-71
2023/08/19 04:23:42;;;;;;;5.47;3.55;;;15.50;99.90;;;;;;5015056;28;20109;-71
2023/08/19 04:26:08;;;;;;;9.32;3.80;;;15.50;99.90;;;;;;5016428;28;20026;-71
2023/08/19 04:28:33;;;;;;;5.13;3.20;;;15.40;99.90;;;;;;5016286;28;20096;-71
2023/08/19 04:31:06;;;;;;;7.47;3.83;;;15.40;99.90;;;;;;5016247;28;20034;-71
2023/08/19 04:33:33;;;;;;;5.70;3.58;;;15.50;99.90;;;;;;5016148;28;20369;-71
2023/08/19 04:35:59;;;;;;;4.55;3.30;;;15.40;99.90;;;;;;5016196;28;20049;-71
2023/08/19 04:38:25;;;;;;;4.30;3.20;;;15.40;99.90;;;;;;5016102;28;20096;-71
2023/08/19 04:40:51;;;;;;;7.13;3.53;;;15.30;99.90;;;;;;5016014;28;20157;-71
2023/08/19 04:43:19;;;;;;;5.25;3.75;;;15.40;99.90;;;;;;5016077;28;20018;-70
2023/08/19 04:45:45;;;;;;;5.57;3.13;;;15.30;99.90;;;;;;5016017;28;20026;-71
2023/08/19 04:48:10;;;;;;;4.18;2.85;;;15.30;99.90;;;;;;5015939;28;20138;-71
2023/08/19 04:50:36;;;;;;;5.22;3.55;;;15.30;99.90;;;;;;5015837;28;20026;-71
2023/08/19 04:53:03;;;;;;;6.03;3.40;;;15.30;99.90;;;;;;5014550;28;20114;-71
2023/08/19 04:55:29;;;;;;;4.97;3.55;;;15.20;99.90;;;;;;5016134;28;20034;-71
2023/08/19 04:57:55;;;;;;;6.15;3.40;;;15.20;99.90;;;;;;5016353;28;20022;-71
2023/08/19 05:00:21;;;;;;;4.35;3.10;;;15.20;99.90;;;;;;5015653;28;20030;-71
2023/08/19 05:02:48;;;;;;;7.63;3.35;;;15.20;99.90;;;;;;5015269;28;20109;-72
2023/08/19 05:05:14;;;;;;;8.02;3.25;;;15.20;99.90;;;;;;5015482;28;20030;-72
2023/08/19 05:07:39;;;;;;;6.53;3.03;;;15.20;99.90;;;;;;5015587;28;20385;-72
2023/08/19 05:10:05;;;;;;;6.00;3.05;;;15.10;99.90;;;;;;5014538;28;20026;-72
2023/08/19 05:12:31;;;;;;;4.70;3.03;;;15.10;99.90;;;;;;5014545;28;20041;-72
2023/08/19 05:14:57;;;;;;;5.10;3.00;;;15.10;99.90;;;;;;5015623;28;20030;-72
2023/08/19 05:17:22;;;;;;;5.75;3.22;;;15.10;99.90;;;;;;5015422;28;20026;-72
2023/08/19 05:19:48;;;;;;;7.70;3.67;;;15.10;99.90;;;;;;5015496;28;20036;-72
2023/08/19 05:22:14;;;;;;;5.38;2.70;;;15.10;99.90;;;;;;5014023;28;20026;-72
2023/08/19 05:24:40;;;;;;;4.38;3.00;;;15.10;99.90;;;;;;5014293;28;20117;-72
2023/08/19 05:27:05;;;;;;;5.35;4.05;;;15.10;99.90;;;;;;5015339;28;20026;-72
2023/08/19 05:29:31;;;;;;;5.25;3.60;;;15.10;99.90;;;;;;5015236;28;20476;-72
2023/08/19 05:31:57;;;;;;;4.55;3.33;;;15.20;99.90;;;;;;5015188;28;20030;-72
2023/08/19 05:34:27;;;;;;;4.18;3.20;;;15.20;99.90;;;;;;5014989;28;20029;-72
2023/08/19 05:36:52;;;;;;;5.53;3.55;;;15.20;99.90;;;;;;5013903;28;20033;-72
2023/08/19 05:39:18;;;;;;;5.95;3.47;;;15.20;99.90;;;;;;5015155;28;20018;-72
2023/08/19 05:41:44;;;;;;;6.70;3.75;;;15.20;99.90;;;;;;5015529;28;20026;-72
2023/08/19 05:44:10;;;;;;;6.70;3.75;;;15.20;99.90;;;;;;5015012;28;20427;-72
2023/08/19 05:46:35;;;;;;;5.18;3.67;;;15.20;99.90;;;;;;5013651;28;20036;-72
2023/08/19 05:49:01;;;;;;;7.18;3.15;;;15.30;99.90;;;;;;5013435;28;20069;-72
2023/08/19 05:51:27;;;;;;;5.22;3.85;;;15.30;99.90;;;;;;5014850;28;20026;-72
2023/08/19 05:53:58;;;;;;;6.80;3.60;;;15.40;99.90;;;;;;4997272;28;20480;-72
2023/08/19 05:56:24;;;;;;;6.60;3.67;;;15.40;99.90;;;;;;5015080;28;20097;-72
2023/08/19 05:58:50;;;;;;;5.05;3.08;;;15.50;99.90;;;;;;5014845;28;20505;-72
2023/08/19 06:01:16;;;;;;;5.13;3.58;;;15.50;99.90;;;;;;5015002;28;20057;-72
2023/08/19 06:03:41;;;;;;;5.47;3.80;;;15.60;99.90;;;;;;5014649;28;20033;-72
2023/08/19 06:06:07;;;;;;;5.90;3.95;;;15.60;99.90;;;;;;5014733;28;20044;-72
2023/08/19 06:08:34;;;;;;;6.28;3.78;;;15.70;99.90;;;;;;5014497;28;20030;-72
2023/08/19 06:11:06;;;;;;;6.22;3.53;;;15.70;99.90;;;;;;5014352;28;20399;-72
2023/08/19 06:13:33;;;;;;;6.82;3.67;;;15.80;99.90;;;;;;5014342;28;20033;-72
2023/08/19 06:15:59;;;;;;;7.18;3.88;;;15.90;99.90;;;;;;5014414;28;20026;-72
2023/08/19 06:18:25;;;;;;;7.03;3.78;;;15.90;99.90;;;;;;5014199;28;20057;-72
2023/08/19 06:20:51;;;;;;;6.10;4.25;;;16.00;99.90;;;;;;5012861;28;20054;-72
2023/08/19 06:23:20;;;;;;;9.85;4.05;;;16.00;99.90;;;;;;5013121;28;20018;-72
2023/08/19 06:25:49;;;;;;;9.55;4.13;;;16.10;99.90;;;;;;5014189;28;20022;-72
2023/08/19 06:28:20;;;;;;;6.93;4.22;;;16.20;99.90;;;;;;5014188;28;20018;-73
2023/08/19 06:30:47;;;;;;;8.55;4.22;;;16.20;99.90;;;;;;5014070;28;20105;-72
2023/08/19 06:33:14;;;;;;;7.40;4.47;;;16.30;99.90;;;;;;5014190;28;20161;-73
2023/08/19 06:35:40;;;;;;;6.65;4.32;;;16.40;99.90;;;;;;5014255;28;20034;-72
2023/08/19 06:38:21;;;;;;;6.22;4.32;;;16.40;99.90;;;;;;5014056;28;20026;-72
2023/08/19 06:40:55;;;;;;;5.93;4.03;;;16.50;99.90;;;;;;5013936;28;20045;-73
2023/08/19 06:43:25;;;;;;;6.35;4.28;;;16.60;99.90;;;;;;5013876;28;20499;-73
2023/08/19 06:45:55;;;;;;;6.85;4.65;;;16.70;99.90;;;;;;5013232;28;20049;-71
2023/08/19 06:48:24;;;;;;;8.53;4.80;;;16.80;99.90;;;;;;5013882;28;20103;-70
2023/08/19 06:50:51;;;;;;;6.80;4.72;;;16.80;99.90;;;;;;4996536;28;20755;-71
2023/08/19 06:53:18;;;;;;;6.75;4.15;;;17.00;99.90;;;;;;5013724;28;20033;-71
2023/08/19 06:56:06;;;;;;;7.28;4.50;;;17.10;99.90;;;;;;5013711;28;20476;-71
2023/08/19 06:58:36;;;;;;;7.25;4.53;;;17.10;99.90;;;;;;5013109;28;20034;-71
2023/08/19 07:01:05;;;;;;;8.13;4.33;;;17.20;99.90;;;;;;5014287;28;20018;-70
2023/08/19 07:03:36;;;;;;;7.65;4.82;;;17.30;99.90;;;;;;5013664;28;20032;-70
2023/08/19 07:06:02;;;;;;;9.27;5.03;;;17.40;99.90;;;;;;5013938;28;20072;-71
2023/08/19 07:08:30;;;;;;;6.50;4.25;;;17.50;99.90;;;;;;5013574;28;20053;-70
2023/08/19 07:10:59;;;;;;;5.68;4.30;;;17.50;99.90;;;;;;5013480;28;20022;-70
2023/08/19 07:13:25;;;;;;;7.25;4.55;;;17.60;99.90;;;;;;5013488;28;20435;-70
2023/08/19 07:15:58;;;;;;;7.38;5.07;;;17.70;99.90;;;;;;5013507;28;20029;-70
2023/08/19 07:18:26;;;;;;;9.07;5.57;;;17.80;99.90;;;;;;5013684;28;20033;-70
2023/08/19 07:20:53;;;;;;;7.57;5.00;;;17.90;99.90;;;;;;5013312;28;20096;-70
2023/08/19 07:23:23;;;;;;;6.85;4.80;;;18.00;99.90;;;;;;5013709;28;20380;-70
2023/08/19 07:25:50;;;;;;;6.95;4.90;;;18.10;99.90;;;;;;5013438;28;20048;-70
2023/08/19 07:28:17;;;;;;;6.43;5.13;;;18.20;99.90;;;;;;5013537;28;20026;-70
2023/08/19 07:30:43;;;;;;;8.45;5.32;;;18.30;99.90;;;;;;5013374;28;20022;-70
2023/08/19 07:33:11;;;;;;;6.80;5.03;;;18.40;99.90;;;;;;5014376;28;20364;-70
2023/08/19 07:35:40;;;;;;;10.45;5.03;;;18.50;99.90;;;;;;5017362;28;20026;-70
2023/08/19 07:38:06;;;;;;;9.20;5.75;;;18.60;99.90;;;;;;5016137;28;20111;-70
2023/08/19 07:40:32;;;;;;;10.60;5.00;;;18.70;99.90;;;;;;5018885;28;20511;-74
2023/08/19 07:42:57;;;;;;;6.82;4.88;;;18.80;99.90;;;;;;5016064;28;20030;-75
2023/08/19 07:45:23;;;;;;;7.43;4.60;;;18.80;99.90;;;;;;5017258;28;20431;-75
2023/08/19 07:47:49;;;;;;;6.45;4.15;;;18.90;99.90;;;;;;5017199;28;20435;-75
2023/08/19 07:50:15;;;;;;;7.25;4.70;;;19.10;99.90;;;;;;5037708;22;20064;-73
2023/08/19 07:52:40;;;;;;;7.78;4.35;;;19.20;99.90;;;;;;5038115;28;20049;-73
2023/08/19 07:55:07;;;;;;;5.97;4.35;;;19.30;99.90;;;;;;5036740;28;20555;-73
2023/08/19 07:57:33;;;;;;;11.68;4.80;;;19.50;99.90;;;;;;5036089;28;20052;-73
2023/08/19 07:59:58;;;;;;;10.75;4.90;;;19.60;99.90;;;;;;5036752;28;20064;-73
2023/08/19 08:02:24;;;;;;;7.88;5.20;;;19.70;99.90;;;;;;5036594;28;20033;-73
2023/08/19 08:04:50;;;;;;;8.63;5.38;;;19.90;99.90;;;;;;5035516;28;20030;-73
2023/08/19 08:07:15;;;;;;;11.10;6.28;;;20.00;99.90;;;;;;5036626;28;20118;-73
2023/08/19 08:09:45;;;;;;;7.30;5.65;;;20.20;99.90;;;;;;5036635;28;20033;-72
2023/08/19 08:12:11;;;;;;;7.80;5.68;;;20.30;99.90;;;;;;5036422;28;20022;-73
2023/08/19 08:14:36;;;;;;;10.85;5.00;;;20.40;99.90;;;;;;5035166;28;20034;-73
2023/08/19 08:17:02;;;;;;;6.10;4.30;;;20.60;99.90;;;;;;5036327;28;20475;-73
2023/08/19 08:19:28;;;;;;;6.68;4.40;;;20.70;99.90;;;;;;5036404;28;20060;-73
2023/08/19 08:21:54;;;;;;;8.02;4.95;;;20.80;99.90;;;;;;5036515;28;20025;-74
2023/08/19 08:24:20;;;;;;;8.95;5.60;;;21.10;99.90;;;;;;5036468;28;20021;-74
2023/08/19 08:26:46;;;;;;;7.70;5.05;;;21.20;99.90;;;;;;5036335;28;20057;-74
2023/08/19 08:29:12;;;;;;;6.75;4.25;;;21.40;99.90;;;;;;5034903;28;20033;-74
2023/08/19 08:31:38;;;;;;;7.05;4.32;;;21.50;99.90;;;;;;5036279;28;20144;-74
2023/08/19 08:34:05;;;;;;;5.43;3.97;;;21.70;99.90;;;;;;5036067;28;20056;-73
2023/08/19 08:36:30;;;;;;;5.55;3.65;;;21.80;99.90;;;;;;5036298;28;20052;-73
2023/08/19 08:38:56;;;;;;;6.22;3.70;;;22.00;99.90;;;;;;5036151;28;20388;-74
2023/08/19 08:41:22;;;;;;;7.07;4.28;;;22.10;99.90;;;;;;5036157;28;20542;-71
2023/08/19 08:43:49;;;;;;;7.20;4.15;;;22.30;99.90;;;;;;5034700;28;20037;-71
2023/08/19 08:46:16;;;;;;;7.43;3.80;;;22.50;99.90;;;;;;5033426;28;20028;-73
2023/08/19 08:48:43;;;;;;;6.28;3.63;;;22.60;99.90;;;;;;5035941;28;20037;-73
2023/08/19 08:51:09;;;;;;;8.48;3.88;;;22.80;99.90;;;;;;5034340;28;20167;-74
2023/08/19 08:53:35;;;;;;;5.18;3.50;;;22.90;99.90;;;;;;5035582;28;20104;-74
2023/08/19 08:56:03;;;;;;;7.30;4.50;;;23.10;99.90;;;;;;5034994;28;20021;-72
2023/08/19 08:58:28;;;;;;;8.13;4.45;;;23.20;99.90;;;;;;5035587;28;20026;-74
2023/08/19 09:00:54;;;;;;;8.15;3.70;;;23.30;99.90;;;;;;5035504;28;20033;-74
2023/08/19 09:03:25;;;;;;;7.38;3.92;;;23.50;99.90;;;;;;5017752;28;20511;-74
2023/08/19 09:05:52;;;;;;;6.78;3.97;;;23.60;99.90;;;;;;5035717;28;20104;-71
2023/08/19 09:08:23;;;;;;;7.25;4.35;;;23.80;99.90;;;;;;5035379;28;20040;-71
2023/08/19 09:10:49;;;;;;;9.82;4.30;;;23.90;99.90;;;;;;5035506;28;20017;-71
2023/08/19 09:13:21;;;;;;;6.18;4.47;;;24.00;99.90;;;;;;5035984;28;20057;-73
2023/08/19 09:15:46;;;;;;;6.63;3.85;;;24.20;99.90;;;;;;5035328;28;20021;-74
2023/08/19 09:18:12;;;;;;;5.55;3.40;;;24.30;99.90;;;;;;5035270;28;20025;-74
2023/08/19 09:20:40;;;;;;;5.80;3.63;;;24.40;99.90;;;;;;5035282;28;20427;-73
2023/08/19 09:23:09;;;;;;;7.47;4.03;;;24.50;99.90;;;;;;5035538;28;20475;-74
2023/08/19 09:25:37;;;;;;;5.13;3.75;;;24.60;99.90;;;;;;5035150;28;20059;-74
2023/08/19 09:28:03;;;;;;;6.72;3.42;;;24.80;99.90;;;;;;5035409;28;20030;-74
2023/08/19 09:30:35;;;;;;;6.55;4.00;;;24.90;99.90;;;;;;5035009;28;20033;-74
2023/08/19 09:33:01;;;;;;;6.90;4.10;;;25.00;99.90;;;;;;5017306;28;20025;-74
2023/08/19 09:35:37;;;;;;;7.70;3.95;;;25.10;99.90;;;;;;5034893;28;20083;-73
2023/08/19 09:38:03;;;;;;;5.50;3.83;;;25.30;99.90;;;;;;5034880;28;20365;-73
2023/08/19 09:40:30;;;;;;;7.30;4.13;;;25.40;99.90;;;;;;5033700;28;20479;-71
2023/08/19 09:43:00;;;;;;;9.27;4.43;;;25.60;99.90;;;;;;5034837;28;20018;-73
2023/08/19 09:45:27;;;;;;;5.87;3.87;;;25.70;99.90;;;;;;5047854;28;20116;-73
2023/08/19 09:47:54;;;;;;;4.82;3.47;;;25.80;99.90;;;;;;5054635;28;20025;-74
2023/08/19 09:50:21;;;;;;;5.63;3.38;;;25.80;99.90;;;;;;5054480;28;20029;-74
2023/08/19 09:52:55;;;;;;;6.10;3.38;;;26.00;99.90;;;;;;5053267;28;20128;-74
2023/08/19 09:55:25;;;;;;;5.15;3.65;;;26.10;99.90;;;;;;5054624;28;20051;-74
2023/08/19 09:57:52;;;;;;;6.43;3.80;;;26.30;99.90;;;;;;5054903;28;20471;-73
2023/08/19 10:00:18;;;;;;;7.88;3.70;;;26.40;99.90;;;;;;5054973;28;20028;-74
2023/08/19 10:02:44;;;;;;;5.63;3.90;;;26.40;99.90;;;;;;5055355;28;20025;-73
2023/08/19 10:05:09;;;;;;;7.20;4.40;;;26.60;99.90;;;;;;5055393;28;20364;-74
2023/08/19 10:07:40;;;;;;;4.65;3.33;;;26.60;99.90;;;;;;5054860;28;20111;-74
2023/08/19 10:10:09;;;;;;;7.82;3.97;;;26.70;99.90;;;;;;5054347;28;20071;-73
2023/08/19 10:12:40;;;;;;;6.95;3.53;;;26.80;99.90;;;;;;5054194;28;20025;-74
2023/08/19 10:15:08;;;;;;;5.47;3.60;;;26.90;98.80;;;;;;5054103;28;20430;-74
2023/08/19 10:17:36;;;;;;;7.20;3.40;;;27.00;99.30;;;;;;5054089;28;20114;-74
2023/08/19 10:20:10;;;;;;;7.25;3.85;;;27.10;99.60;;;;;;5054031;28;20442;-74
2023/08/19 10:22:39;;;;;;;6.38;3.53;;;27.20;99.00;;;;;;5054110;28;20017;-74
2023/08/19 10:25:07;;;;;;;6.60;3.80;;;27.30;98.80;;;;;;5054293;28;20056;-74
2023/08/19 10:27:33;;;;;;;5.47;3.00;;;27.50;98.30;;;;;;5055225;28;20025;-74
2023/08/19 10:29:59;;;;;;;5.45;2.90;;;27.60;96.80;;;;;;5054086;28;20040;-73
2023/08/19 10:32:29;;;;;;;7.60;3.50;;;27.70;96.00;;;;;;5053866;28;20029;-74
2023/08/19 10:35:21;;;;;;;;;;;27.90;96.10;;;;;;5035739;28;20029;-74
2023/08/19 10:37:50;;;;;;;;;;;28.00;95.30;;;;;;5051983;28;20036;-74
2023/08/19 10:40:24;;;;;;;;;;;28.10;94.60;;;;;;5054175;28;19916;-74
2023/08/19 10:42:59;;;;;;;;;;;28.20;95.10;;;;;;5054012;28;19948;-74
2023/08/19 10:45:31;;;;;;;;;;;28.30;94.80;;;;;;5054019;28;19955;-74
2023/08/19 10:47:57;;;;;;;;;;;28.40;94.50;;;;;;5054316;28;19944;-74
2023/08/19 10:50:24;;;;;;;;;;;28.60;92.40;;;;;;5053974;28;20003;-74
2023/08/19 10:52:59;;;;;;;;;;;28.60;92.00;;;;;;5053920;28;19909;-73
2023/08/19 10:55:25;;;;;;;;;;;28.90;91.40;;;;;;5053914;28;19920;-71
2023/08/19 10:57:51;;;;;;;;;;;29.00;92.00;;;;;;5053794;28;19955;-73
2023/08/19 11:00:21;;;;;;;;;;;29.00;91.50;;;;;;5053774;28;19909;-71
2023/08/19 11:02:47;;;;;;;;;;;29.10;90.90;;;;;;5053816;28;19940;-71
2023/08/19 11:05:12;;;;;;;;;;;29.20;90.50;;;;;;5053743;28;19944;-71
2023/08/19 11:07:41;;;;;;;;;;;29.30;90.70;;;;;;5053426;28;19946;-72
2023/08/19 11:10:07;;;;;;;;;;;29.40;89.40;;;;;;5052578;28;19909;-72
2023/08/19 11:12:33;;;;;;;;;;;29.40;88.60;;;;;;5053860;28;19912;-72
2023/08/19 11:14:59;;;;;;;;;;;29.60;88.90;;;;;;5054959;28;19917;-72
2023/08/19 11:17:29;;;;;;;;;;;29.60;85.90;;;;;;5055175;28;19919;-72
2023/08/19 11:19:55;;;;;;;;;;;29.60;84.70;;;;;;5054560;28;20007;-72
2023/08/19 11:22:21;;;;;;;;;;;29.70;81.60;;;;;;5054671;28;19916;-72
2023/08/19 11:24:47;;;;;;;;;;;29.70;79.90;;;;;;5053923;28;19905;-72
2023/08/19 11:27:13;;;;;;;;;;;29.80;80.80;;;;;;5053835;28;20003;-72
2023/08/19 11:29:39;;;;;;;;;;;29.80;75.20;;;;;;5053611;28;20301;-72
2023/08/19 11:32:05;;;;;;;;;;;29.90;76.00;;;;;;5053545;28;19905;-72
2023/08/19 11:34:30;;;;;;;;;;;30.00;75.80;;;;;;5053646;28;20355;-72
2023/08/19 11:36:56;;;;;;;;;;;30.10;70.10;;;;;;5052732;28;19936;-72
2023/08/19 11:39:22;;;;;;;;;;;30.20;65.30;;;;;;5053434;28;19931;-72
2023/08/19 11:41:47;;;;;;;;;;;30.20;63.20;;;;;;5053592;28;19939;-72
2023/08/19 11:44:13;;;;;;;;;;;30.20;61.00;;;;;;5052307;28;19940;-72
2023/08/19 11:46:39;;;;;;;;;;;30.30;62.50;;;;;;5053509;28;19916;-72
2023/08/19 11:49:08;;;;;;;;;;;30.40;61.40;;;;;;5053524;28;20004;-72
2023/08/19 11:51:40;;;;;;;;;;;30.50;62.30;;;;;;5053191;28;20402;-72
2023/08/19 11:54:07;;;;;;;;;;;30.60;60.70;;;;;;5053303;28;19958;-72
2023/08/19 11:56:49;;;;;;;;;;;30.70;60.80;;;;;;5053458;28;19904;-72
2023/08/19 11:59:15;;;;;;;;;;;30.80;59.00;;;;;;5054269;28;19905;-72
2023/08/19 12:01:41;;;;;;;;;;;30.90;60.00;;;;;;5054068;28;19911;-72
2023/08/19 12:04:11;;;;;;;;;;;30.90;60.40;;;;;;5053141;28;20316;-72
2023/08/19 12:06:37;;;;;;;;;;;31.00;57.30;;;;;;5053173;28;19911;-72
2023/08/19 12:09:04;;;;;;;;;;;31.10;60.00;;;;;;5052966;28;19905;-72
2023/08/19 12:11:30;;;;;;;;;;;31.20;60.60;;;;;;5051853;28;20340;-71
2023/08/19 12:13:56;;;;;;;;;;;31.30;59.90;;;;;;5053035;28;20431;-71
2023/08/19 12:16:21;;;;;;;;;;;31.50;59.40;;;;;;5051791;28;19915;-71
2023/08/19 12:18:47;;;;;;;;;;;31.60;59.20;;;;;;5053242;28;19905;-71
2023/08/19 12:21:13;;;;;;;;;;;31.70;58.60;;;;;;5056689;28;19905;-71
2023/08/19 12:23:38;;;;;;;;;;;31.80;57.40;;;;;;5056650;28;19916;-71
2023/08/19 12:26:04;;;;;;;;;;;32.00;58.30;;;;;;5056884;28;19915;-71
2023/08/19 12:28:29;;;;;;;;;;;32.00;58.20;;;;;;5056539;28;20003;-71
2023/08/19 12:30:55;;;;;;;;;;;32.00;57.40;;;;;;5056786;28;19995;-71
2023/08/19 12:33:21;;;;;;;;;;;32.10;57.60;;;;;;5056442;28;19988;-71
2023/08/19 12:35:48;;;;;;;;;;;32.10;59.40;;;;;;5056701;28;19924;-71
2023/08/19 12:38:14;;;;;;;;;;;32.20;57.90;;;;;;5056417;28;19904;-71
2023/08/19 12:40:40;;;;;;;;;;;32.30;55.40;;;;;;5056248;28;19912;-71
2023/08/19 12:43:06;;;;;;;;;;;32.40;57.70;;;;;;5056318;28;19909;-71
2023/08/19 12:45:31;;;;;;;;;;;32.40;58.70;;;;;;5056473;28;20000;-71
2023/08/19 12:47:57;;;;;;;;;;;32.40;59.00;;;;;;5056216;28;20244;-71
2023/08/19 12:50:22;;;;;;;;;;;32.50;58.20;;;;;;5055836;28;20386;-71
2023/08/19 12:52:49;;;;;;;;;;;32.50;59.00;;;;;;5056129;28;19920;-71
2023/08/19 12:55:14;;;;;;;;;;;32.60;60.20;;;;;;5055862;28;19916;-71
2023/08/19 12:57:43;;;;;;;;;;;32.70;59.20;;;;;;5055850;28;19931;-71
2023/08/19 13:00:12;;;;;;;;;;;32.80;58.30;;;;;;5056135;28;19915;-71
2023/08/19 13:02:38;;;;;;;;;;;32.90;58.90;;;;;;5056226;28;19909;-71